sensor_id;sensor_type;location;lat;lon;timestamp;temperature;humidity
71142;DHT22;58808;59.366;17.970;2023-08-12T00:00:20;13.00;99.90
71142;DHT22;58808;59.366;17.970;2023-08-12T00:02:46;13.00;99.90
71142;DHT22;58808;59.366;17.970;2023-08-12T00:05:13;13.00;99.90
71142;DHT22;58808;59.366;17.970;2023-08-12T00:07:40;13.00;99.90
71142;DHT22;58808;59.366;17.970;2023-08-12T00:10:10;13.00;99.90
71142;DHT22;58808;59.366;17.970;2023-08-12T00:12:37;13.00;99.90
71142;DHT22;58808;59.366;17.970;2023-08-12T00:15:04;13.00;99.90
71142;DHT22;58808;59.366;17.970;2023-08-12T00:17:32;13.00;99.90
71142;DHT22;58808;59.366;17.970;2023-08-12T00:19:57;13.00;99.90
71142;DHT22;58808;59.366;17.970;2023-08-12T00:22:23;13.00;99.90
71142;DHT22;58808;59.366;17.970;2023-08-12T00:24:49;12.90;99.90
71142;DHT22;58808;59.366;17.970;2023-08-12T00:27:15;12.90;99.90
71142;DHT22;58808;59.366;17.970;2023-08-12T00:29:40;12.90;99.90
71142;DHT22;58808;59.366;17.970;2023-08-12T00:32:09;12.80;99.90
71142;DHT22;58808;59.366;17.970;2023-08-12T00:34:35;12.80;99.90
71142;DHT22;58808;59.366;17.970;2023-08-12T00:37:01;12.80;99.90
71142;DHT22;58808;59.366;17.970;2023-08-12T00:39:27;12.80;99.90
71142;DHT22;58808;59.366;17.970;2023-08-12T00:41:52;12.80;99.90
71142;DHT22;58808;59.366;17.970;2023-08-12T00:44:18;12.80;99.90
71142;DHT22;58808;59.366;17.970;2023-08-12T00:46:44;12.80;99.90
71142;DHT22;58808;59.366;17.970;2023-08-12T00:49:11;12.80;99.90
71142;DHT22;58808;59.366;17.970;2023-08-12T00:51:41;12.70;99.90
71142;DHT22;58808;59.366;17.970;2023-08-12T00:54:08;12.70;99.90
71142;DHT22;58808;59.366;17.970;2023-08-12T00:56:35;12.60;99.90
71142;DHT22;58808;59.366;17.970;2023-08-12T00:59:02;12.60;99.90
71142;DHT22;58808;59.366;17.970;2023-08-12T01:01:30;12.60;99.90
71142;DHT22;58808;59.366;17.970;2023-08-12T01:03:57;12.60;99.90
71142;DHT22;58808;59.366;17.970;2023-08-12T01:06:23;12.60;99.90
71142;DHT22;58808;59.366;17.970;2023-08-12T01:08:49;12.60;99.90
71142;DHT22;58808;59.366;17.970;2023-08-12T01:11:28;12.60;99.90
71142;DHT22;58808;59.366;17.970;2023-08-12T01:16:36;12.60;99.90
71142;DHT22;58808;59.366;17.970;2023-08-12T01:19:11;12.60;99.90
71142;DHT22;58808;59.366;17.970;2023-08-12T01:21:41;12.60;99.90
71142;DHT22;58808;59.366;17.970;2023-08-12T01:24:09;12.50;99.90
71142;DHT22;58808;59.366;17.970;2023-08-12T01:26:34;12.50;99.90
71142;DHT22;58808;59.366;17.970;2023-08-12T01:29:00;12.50;99.90
71142;DHT22;58808;59.366;17.970;2023-08-12T01:31:51;12.50;99.90
71142;DHT22;58808;59.366;17.970;2023-08-12T01:35:19;12.50;99.90
71142;DHT22;58808;59.366;17.970;2023-08-12T01:37:28;12.50;99.90
71142;DHT22;58808;59.366;17.970;2023-08-12T01:39:55;12.50;99.90
71142;DHT22;58808;59.366;17.970;2023-08-12T01:42:23;12.50;99.90
71142;DHT22;58808;59.366;17.970;2023-08-12T01:44:49;12.50;99.90
71142;DHT22;58808;59.366;17.970;2023-08-12T01:47:15;12.50;99.90
71142;DHT22;58808;59.366;17.970;2023-08-12T01:49:41;12.50;99.90
71142;DHT22;58808;59.366;17.970;2023-08-12T01:52:07;12.50;99.90
71142;DHT22;58808;59.366;17.970;2023-08-12T01:54:33;12.60;99.90
71142;DHT22;58808;59.366;17.970;2023-08-12T01:57:03;12.60;99.90
71142;DHT22;58808;59.366;17.970;2023-08-12T01:59:37;12.60;99.90
71142;DHT22;58808;59.366;17.970;2023-08-12T02:02:03;12.50;99.90
71142;DHT22;58808;59.366;17.970;2023-08-12T02:04:29;12.60;99.90
71142;DHT22;58808;59.366;17.970;2023-08-12T02:06:55;12.60;99.90
71142;DHT22;58808;59.366;17.970;2023-08-12T02:09:21;12.60;99.90
71142;DHT22;58808;59.366;17.970;2023-08-12T02:11:48;12.60;99.90
71142;DHT22;58808;59.366;17.970;2023-08-12T02:14:14;12.50;99.90
71142;DHT22;58808;59.366;17.970;2023-08-12T02:16:39;12.50;99.90
71142;DHT22;58808;59.366;17.970;2023-08-12T02:19:05;12.50;99.90
71142;DHT22;58808;59.366;17.970;2023-08-12T02:21:31;12.50;99.90
71142;DHT22;58808;59.366;17.970;2023-08-12T02:23:57;12.50;99.90
71142;DHT22;58808;59.366;17.970;2023-08-12T02:26:22;12.50;99.90
71142;DHT22;58808;59.366;17.970;2023-08-12T02:28:48;12.50;99.90
71142;DHT22;58808;59.366;17.970;2023-08-12T02:31:15;12.50;99.90
71142;DHT22;58808;59.366;17.970;2023-08-12T02:33:41;12.50;99.90
71142;DHT22;58808;59.366;17.970;2023-08-12T02:36:07;12.50;99.90
71142;DHT22;58808;59.366;17.970;2023-08-12T02:38:33;12.50;99.90
71142;DHT22;58808;59.366;17.970;2023-08-12T02:40:59;12.50;99.90
71142;DHT22;58808;59.366;17.970;2023-08-12T02:43:25;12.40;99.90
71142;DHT22;58808;59.366;17.970;2023-08-12T02:45:51;12.30;99.90
71142;DHT22;58808;59.366;17.970;2023-08-12T02:48:17;12.30;99.90
71142;DHT22;58808;59.366;17.970;2023-08-12T02:50:43;12.30;99.90
71142;DHT22;58808;59.366;17.970;2023-08-12T02:53:08;12.30;99.90
71142;DHT22;58808;59.366;17.970;2023-08-12T02:55:34;12.30;99.90
71142;DHT22;58808;59.366;17.970;2023-08-12T02:58:00;12.30;99.90
71142;DHT22;58808;59.366;17.970;2023-08-12T03:00:26;12.40;99.90
71142;DHT22;58808;59.366;17.970;2023-08-12T03:02:53;12.40;99.90
71142;DHT22;58808;59.366;17.970;2023-08-12T03:05:19;12.40;99.90
71142;DHT22;58808;59.366;17.970;2023-08-12T03:07:45;12.40;99.90
71142;DHT22;58808;59.366;17.970;2023-08-12T03:10:10;12.40;99.90
71142;DHT22;58808;59.366;17.970;2023-08-12T03:12:36;12.30;99.90
71142;DHT22;58808;59.366;17.970;2023-08-12T03:15:03;12.30;99.90
71142;DHT22;58808;59.366;17.970;2023-08-12T03:17:29;12.30;99.90
71142;DHT22;58808;59.366;17.970;2023-08-12T03:19:57;12.30;99.90
71142;DHT22;58808;59.366;17.970;2023-08-12T03:22:25;12.40;99.90
71142;DHT22;58808;59.366;17.970;2023-08-12T03:24:51;12.30;99.90
71142;DHT22;58808;59.366;17.970;2023-08-12T03:27:16;12.30;99.90
71142;DHT22;58808;59.366;17.970;2023-08-12T03:29:42;12.40;99.90
71142;DHT22;58808;59.366;17.970;2023-08-12T03:32:08;12.30;99.90
71142;DHT22;58808;59.366;17.970;2023-08-12T03:34:33;12.40;99.90
71142;DHT22;58808;59.366;17.970;2023-08-12T03:36:59;12.40;99.90
71142;DHT22;58808;59.366;17.970;2023-08-12T03:39:25;12.40;99.90
71142;DHT22;58808;59.366;17.970;2023-08-12T03:41:50;12.40;99.90
71142;DHT22;58808;59.366;17.970;2023-08-12T03:44:16;12.40;99.90
71142;DHT22;58808;59.366;17.970;2023-08-12T03:46:42;12.40;99.90
71142;DHT22;58808;59.366;17.970;2023-08-12T03:49:08;12.40;99.90
71142;DHT22;58808;59.366;17.970;2023-08-12T03:51:33;12.40;99.90
71142;DHT22;58808;59.366;17.970;2023-08-12T03:53:59;12.50;99.90
71142;DHT22;58808;59.366;17.970;2023-08-12T03:56:25;12.50;99.90
71142;DHT22;58808;59.366;17.970;2023-08-12T03:58:51;12.50;99.90
71142;DHT22;58808;59.366;17.970;2023-08-12T04:01:17;12.50;99.90
71142;DHT22;58808;59.366;17.970;2023-08-12T04:03:43;12.50;99.90
71142;DHT22;58808;59.366;17.970;2023-08-12T04:06:08;12.60;99.90
71142;DHT22;58808;59.366;17.970;2023-08-12T04:08:34;12.60;99.90
71142;DHT22;58808;59.366;17.970;2023-08-12T04:11:00;12.60;99.90
71142;DHT22;58808;59.366;17.970;2023-08-12T04:13:26;12.60;99.90
71142;DHT22;58808;59.366;17.970;2023-08-12T04:15:52;12.70;99.90
71142;DHT22;58808;59.366;17.970;2023-08-12T04:18:21;12.70;99.90
71142;DHT22;58808;59.366;17.970;2023-08-12T04:20:51;12.70;99.90
71142;DHT22;58808;59.366;17.970;2023-08-12T04:23:17;12.80;99.90
71142;DHT22;58808;59.366;17.970;2023-08-12T04:25:44;12.80;99.90
71142;DHT22;58808;59.366;17.970;2023-08-12T04:28:11;12.80;99.90
71142;DHT22;58808;59.366;17.970;2023-08-12T04:30:43;12.90;99.90
71142;DHT22;58808;59.366;17.970;2023-08-12T04:33:09;12.90;99.90
71142;DHT22;58808;59.366;17.970;2023-08-12T04:35:35;13.00;99.90
71142;DHT22;58808;59.366;17.970;2023-08-12T04:38:01;13.00;99.90
71142;DHT22;58808;59.366;17.970;2023-08-12T04:40:26;13.10;99.90
71142;DHT22;58808;59.366;17.970;2023-08-12T04:42:52;13.20;99.90
71142;DHT22;58808;59.366;17.970;2023-08-12T04:45:18;13.30;99.90
71142;DHT22;58808;59.366;17.970;2023-08-12T04:47:43;13.40;99.90
71142;DHT22;58808;59.366;17.970;2023-08-12T04:50:09;13.50;99.90
71142;DHT22;58808;59.366;17.970;2023-08-12T04:52:36;13.60;99.90
71142;DHT22;58808;59.366;17.970;2023-08-12T04:55:01;13.70;99.90
71142;DHT22;58808;59.366;17.970;2023-08-12T04:57:28;13.70;99.90
71142;DHT22;58808;59.366;17.970;2023-08-12T04:59:54;13.80;99.90
71142;DHT22;58808;59.366;17.970;2023-08-12T05:02:20;13.80;99.90
71142;DHT22;58808;59.366;17.970;2023-08-12T05:04:49;13.90;99.90
71142;DHT22;58808;59.366;17.970;2023-08-12T05:07:15;13.90;99.90
71142;DHT22;58808;59.366;17.970;2023-08-12T05:09:41;14.00;99.90
71142;DHT22;58808;59.366;17.970;2023-08-12T05:12:10;14.00;99.90
71142;DHT22;58808;59.366;17.970;2023-08-12T05:14:36;14.10;99.90
71142;DHT22;58808;59.366;17.970;2023-08-12T05:17:02;14.10;99.90
71142;DHT22;58808;59.366;17.970;2023-08-12T05:19:27;14.10;99.90
71142;DHT22;58808;59.366;17.970;2023-08-12T05:21:53;14.10;99.90
71142;DHT22;58808;59.366;17.970;2023-08-12T05:24:19;14.10;99.90
71142;DHT22;58808;59.366;17.970;2023-08-12T05:26:45;14.10;99.90
71142;DHT22;58808;59.366;17.970;2023-08-12T05:29:10;14.10;99.90
71142;DHT22;58808;59.366;17.970;2023-08-12T05:31:36;14.10;99.90
71142;DHT22;58808;59.366;17.970;2023-08-12T05:34:02;14.10;99.90
71142;DHT22;58808;59.366;17.970;2023-08-12T05:36:28;14.20;99.90
71142;DHT22;58808;59.366;17.970;2023-08-12T05:38:54;14.20;99.90
71142;DHT22;58808;59.366;17.970;2023-08-12T05:41:20;14.20;99.90
71142;DHT22;58808;59.366;17.970;2023-08-12T05:43:47;14.20;99.90
71142;DHT22;58808;59.366;17.970;2023-08-12T05:46:13;14.30;99.90
71142;DHT22;58808;59.366;17.970;2023-08-12T05:48:39;14.30;99.90
71142;DHT22;58808;59.366;17.970;2023-08-12T05:51:05;14.30;99.90
71142;DHT22;58808;59.366;17.970;2023-08-12T05:53:30;14.40;99.90
71142;DHT22;58808;59.366;17.970;2023-08-12T05:55:57;14.40;99.90
71142;DHT22;58808;59.366;17.970;2023-08-12T05:58:23;14.40;99.90
71142;DHT22;58808;59.366;17.970;2023-08-12T06:00:48;14.50;99.90
71142;DHT22;58808;59.366;17.970;2023-08-12T06:03:14;14.50;99.90
71142;DHT22;58808;59.366;17.970;2023-08-12T06:05:40;14.60;99.90
71142;DHT22;58808;59.366;17.970;2023-08-12T06:08:06;14.60;99.90
71142;DHT22;58808;59.366;17.970;2023-08-12T06:10:33;14.70;99.90
71142;DHT22;58808;59.366;17.970;2023-08-12T06:12:59;14.70;99.90
71142;DHT22;58808;59.366;17.970;2023-08-12T06:15:24;14.80;99.90
71142;DHT22;58808;59.366;17.970;2023-08-12T06:17:50;14.90;99.90
71142;DHT22;58808;59.366;17.970;2023-08-12T06:20:16;15.00;99.90
71142;DHT22;58808;59.366;17.970;2023-08-12T06:22:42;15.10;99.90
71142;DHT22;58808;59.366;17.970;2023-08-12T06:25:08;15.20;99.90
71142;DHT22;58808;59.366;17.970;2023-08-12T06:27:33;15.20;99.90
71142;DHT22;58808;59.366;17.970;2023-08-12T06:29:59;15.30;99.90
71142;DHT22;58808;59.366;17.970;2023-08-12T06:32:25;15.30;99.90
71142;DHT22;58808;59.366;17.970;2023-08-12T06:34:50;15.40;99.90
71142;DHT22;58808;59.366;17.970;2023-08-12T06:37:16;15.40;99.90
71142;DHT22;58808;59.366;17.970;2023-08-12T06:39:42;15.50;99.90
71142;DHT22;58808;59.366;17.970;2023-08-12T06:42:07;15.50;99.90
71142;DHT22;58808;59.366;17.970;2023-08-12T06:44:33;15.60;99.90
71142;DHT22;58808;59.366;17.970;2023-08-12T06:46:59;15.60;99.90
71142;DHT22;58808;59.366;17.970;2023-08-12T06:49:24;15.60;99.90
71142;DHT22;58808;59.366;17.970;2023-08-12T06:51:50;15.60;99.90
71142;DHT22;58808;59.366;17.970;2023-08-12T06:54:15;15.70;99.90
71142;DHT22;58808;59.366;17.970;2023-08-12T06:56:41;15.70;99.90
71142;DHT22;58808;59.366;17.970;2023-08-12T06:59:07;15.70;99.90
71142;DHT22;58808;59.366;17.970;2023-08-12T07:01:33;15.70;99.90
71142;DHT22;58808;59.366;17.970;2023-08-12T07:03:58;15.70;99.90
71142;DHT22;58808;59.366;17.970;2023-08-12T07:06:24;15.80;99.90
71142;DHT22;58808;59.366;17.970;2023-08-12T07:08:50;15.90;99.90
71142;DHT22;58808;59.366;17.970;2023-08-12T07:11:15;15.90;99.90
71142;DHT22;58808;59.366;17.970;2023-08-12T07:13:41;15.90;99.90
71142;DHT22;58808;59.366;17.970;2023-08-12T07:16:08;15.90;99.90
71142;DHT22;58808;59.366;17.970;2023-08-12T07:18:34;15.90;99.90
71142;DHT22;58808;59.366;17.970;2023-08-12T07:20:59;15.90;99.90
71142;DHT22;58808;59.366;17.970;2023-08-12T07:23:25;16.00;99.90
71142;DHT22;58808;59.366;17.970;2023-08-12T07:25:51;16.00;99.90
71142;DHT22;58808;59.366;17.970;2023-08-12T07:28:17;15.90;99.90
71142;DHT22;58808;59.366;17.970;2023-08-12T07:30:43;15.90;99.90
71142;DHT22;58808;59.366;17.970;2023-08-12T07:33:08;15.90;99.90
71142;DHT22;58808;59.366;17.970;2023-08-12T07:35:34;15.90;99.90
71142;DHT22;58808;59.366;17.970;2023-08-12T07:38:00;16.00;99.90
71142;DHT22;58808;59.366;17.970;2023-08-12T07:40:26;16.00;99.90
71142;DHT22;58808;59.366;17.970;2023-08-12T07:42:51;16.00;99.90
71142;DHT22;58808;59.366;17.970;2023-08-12T07:45:17;16.00;99.90
71142;DHT22;58808;59.366;17.970;2023-08-12T07:47:43;16.10;99.90
71142;DHT22;58808;59.366;17.970;2023-08-12T07:50:09;16.10;99.90
71142;DHT22;58808;59.366;17.970;2023-08-12T07:52:36;16.20;99.90
71142;DHT22;58808;59.366;17.970;2023-08-12T07:55:02;16.30;99.90
71142;DHT22;58808;59.366;17.970;2023-08-12T07:57:27;16.30;99.90
71142;DHT22;58808;59.366;17.970;2023-08-12T07:59:53;16.40;99.90
71142;DHT22;58808;59.366;17.970;2023-08-12T08:02:19;16.50;99.90
71142;DHT22;58808;59.366;17.970;2023-08-12T08:04:44;16.50;99.90
71142;DHT22;58808;59.366;17.970;2023-08-12T08:07:14;16.50;99.90
71142;DHT22;58808;59.366;17.970;2023-08-12T08:09:40;16.50;99.90
71142;DHT22;58808;59.366;17.970;2023-08-12T08:12:07;16.50;99.90
71142;DHT22;58808;59.366;17.970;2023-08-12T08:14:33;16.50;99.90
71142;DHT22;58808;59.366;17.970;2023-08-12T08:16:58;16.40;99.90
71142;DHT22;58808;59.366;17.970;2023-08-12T08:19:24;16.50;99.90
71142;DHT22;58808;59.366;17.970;2023-08-12T08:21:50;16.50;99.90
71142;DHT22;58808;59.366;17.970;2023-08-12T08:24:15;16.60;99.90
71142;DHT22;58808;59.366;17.970;2023-08-12T08:26:41;16.60;99.90
71142;DHT22;58808;59.366;17.970;2023-08-12T08:29:07;16.70;99.90
71142;DHT22;58808;59.366;17.970;2023-08-12T08:31:32;16.70;99.90
71142;DHT22;58808;59.366;17.970;2023-08-12T08:33:58;16.60;99.90
71142;DHT22;58808;59.366;17.970;2023-08-12T08:36:24;16.60;99.90
71142;DHT22;58808;59.366;17.970;2023-08-12T08:38:50;16.60;99.90
71142;DHT22;58808;59.366;17.970;2023-08-12T08:41:16;16.60;99.90
71142;DHT22;58808;59.366;17.970;2023-08-12T08:43:43;16.60;99.90
71142;DHT22;58808;59.366;17.970;2023-08-12T08:46:15;16.70;99.90
71142;DHT22;58808;59.366;17.970;2023-08-12T08:48:45;16.70;99.90
71142;DHT22;58808;59.366;17.970;2023-08-12T08:51:12;16.80;99.90
71142;DHT22;58808;59.366;17.970;2023-08-12T08:53:38;16.90;99.90
71142;DHT22;58808;59.366;17.970;2023-08-12T08:56:08;16.90;99.90
71142;DHT22;58808;59.366;17.970;2023-08-12T08:58:38;17.00;99.90
71142;DHT22;58808;59.366;17.970;2023-08-12T09:01:05;17.10;99.90
71142;DHT22;58808;59.366;17.970;2023-08-12T09:03:32;17.20;99.90
71142;DHT22;58808;59.366;17.970;2023-08-12T09:05:59;17.30;99.90
71142;DHT22;58808;59.366;17.970;2023-08-12T09:08:26;17.40;99.90
71142;DHT22;58808;59.366;17.970;2023-08-12T09:10:53;17.50;99.90
71142;DHT22;58808;59.366;17.970;2023-08-12T09:13:19;17.60;99.90
71142;DHT22;58808;59.366;17.970;2023-08-12T09:15:44;17.60;99.90
71142;DHT22;58808;59.366;17.970;2023-08-12T09:18:10;17.70;99.90
71142;DHT22;58808;59.366;17.970;2023-08-12T09:20:36;17.80;99.90
71142;DHT22;58808;59.366;17.970;2023-08-12T09:23:02;17.80;99.90
71142;DHT22;58808;59.366;17.970;2023-08-12T09:25:29;17.90;99.90
71142;DHT22;58808;59.366;17.970;2023-08-12T09:27:55;17.90;99.90
71142;DHT22;58808;59.366;17.970;2023-08-12T09:30:23;17.90;99.90
71142;DHT22;58808;59.366;17.970;2023-08-12T09:32:59;17.90;99.90
71142;DHT22;58808;59.366;17.970;2023-08-12T09:35:34;17.90;99.90
71142;DHT22;58808;59.366;17.970;2023-08-12T09:38:01;17.80;99.90
71142;DHT22;58808;59.366;17.970;2023-08-12T09:40:27;17.80;99.90
71142;DHT22;58808;59.366;17.970;2023-08-12T09:42:52;17.80;99.90
71142;DHT22;58808;59.366;17.970;2023-08-12T09:45:19;17.80;99.90
71142;DHT22;58808;59.366;17.970;2023-08-12T09:47:48;17.90;99.90
71142;DHT22;58808;59.366;17.970;2023-08-12T09:50:14;18.00;99.90
71142;DHT22;58808;59.366;17.970;2023-08-12T09:52:40;18.10;99.90
71142;DHT22;58808;59.366;17.970;2023-08-12T09:55:08;18.20;99.90
71142;DHT22;58808;59.366;17.970;2023-08-12T09:57:36;18.20;99.90
71142;DHT22;58808;59.366;17.970;2023-08-12T10:00:04;18.30;99.90
71142;DHT22;58808;59.366;17.970;2023-08-12T10:02:37;18.30;99.90
71142;DHT22;58808;59.366;17.970;2023-08-12T10:05:04;18.40;99.90
71142;DHT22;58808;59.366;17.970;2023-08-12T10:07:31;18.50;99.90
71142;DHT22;58808;59.366;17.970;2023-08-12T10:09:57;18.40;99.90
71142;DHT22;58808;59.366;17.970;2023-08-12T10:12:23;18.40;99.90
71142;DHT22;58808;59.366;17.970;2023-08-12T10:14:49;18.40;99.90
71142;DHT22;58808;59.366;17.970;2023-08-12T10:17:16;18.40;99.90
71142;DHT22;58808;59.366;17.970;2023-08-12T10:19:46;18.50;99.90
71142;DHT22;58808;59.366;17.970;2023-08-12T10:22:13;18.40;99.90
71142;DHT22;58808;59.366;17.970;2023-08-12T10:24:42;18.50;99.90
71142;DHT22;58808;59.366;17.970;2023-08-12T10:27:08;18.50;99.90
71142;DHT22;58808;59.366;17.970;2023-08-12T10:29:35;18.50;99.90
71142;DHT22;58808;59.366;17.970;2023-08-12T10:32:02;18.60;99.90
71142;DHT22;58808;59.366;17.970;2023-08-12T10:34:27;18.70;99.90
71142;DHT22;58808;59.366;17.970;2023-08-12T10:36:57;18.80;99.90
71142;DHT22;58808;59.366;17.970;2023-08-12T10:39:26;18.80;99.90
71142;DHT22;58808;59.366;17.970;2023-08-12T10:41:55;18.90;99.90
71142;DHT22;58808;59.366;17.970;2023-08-12T10:44:21;18.90;99.90
71142;DHT22;58808;59.366;17.970;2023-08-12T10:46:52;18.90;99.90
71142;DHT22;58808;59.366;17.970;2023-08-12T10:49:21;18.80;99.90
71142;DHT22;58808;59.366;17.970;2023-08-12T10:51:54;18.90;99.90
71142;DHT22;58808;59.366;17.970;2023-08-12T10:54:26;18.90;99.90
71142;DHT22;58808;59.366;17.970;2023-08-12T10:57:07;19.00;99.90
71142;DHT22;58808;59.366;17.970;2023-08-12T11:02:26;19.10;99.90
71142;DHT22;58808;59.366;17.970;2023-08-12T11:05:19;19.10;99.90
71142;DHT22;58808;59.366;17.970;2023-08-12T11:12:37;19.30;99.90
71142;DHT22;58808;59.366;17.970;2023-08-12T11:15:04;19.50;99.90
71142;DHT22;58808;59.366;17.970;2023-08-12T11:17:40;19.50;99.90
71142;DHT22;58808;59.366;17.970;2023-08-12T11:20:08;19.70;99.90
71142;DHT22;58808;59.366;17.970;2023-08-12T11:22:40;20.00;99.90
71142;DHT22;58808;59.366;17.970;2023-08-12T11:25:15;20.20;99.90
71142;DHT22;58808;59.366;17.970;2023-08-12T11:27:42;20.60;99.90
71142;DHT22;58808;59.366;17.970;2023-08-12T11:30:10;20.90;99.90
71142;DHT22;58808;59.366;17.970;2023-08-12T11:32:37;21.00;99.90
71142;DHT22;58808;59.366;17.970;2023-08-12T11:35:05;21.00;99.90
71142;DHT22;58808;59.366;17.970;2023-08-12T11:37:31;20.90;99.90
71142;DHT22;58808;59.366;17.970;2023-08-12T11:39:57;20.80;99.90
71142;DHT22;58808;59.366;17.970;2023-08-12T11:42:23;20.60;99.90
71142;DHT22;58808;59.366;17.970;2023-08-12T11:44:49;20.60;99.90
71142;DHT22;58808;59.366;17.970;2023-08-12T11:47:14;20.50;99.90
71142;DHT22;58808;59.366;17.970;2023-08-12T11:49:40;20.40;99.90
71142;DHT22;58808;59.366;17.970;2023-08-12T11:52:08;20.40;99.90
71142;DHT22;58808;59.366;17.970;2023-08-12T11:54:34;20.40;99.90
71142;DHT22;58808;59.366;17.970;2023-08-12T11:57:00;20.60;99.90
71142;DHT22;58808;59.366;17.970;2023-08-12T11:59:26;21.00;99.90
71142;DHT22;58808;59.366;17.970;2023-08-12T12:01:52;21.00;99.90
71142;DHT22;58808;59.366;17.970;2023-08-12T12:04:21;21.10;99.90
71142;DHT22;58808;59.366;17.970;2023-08-12T12:06:47;21.00;99.90
71142;DHT22;58808;59.366;17.970;2023-08-12T12:09:16;20.90;99.90
71142;DHT22;58808;59.366;17.970;2023-08-12T12:11:44;20.70;99.90
71142;DHT22;58808;59.366;17.970;2023-08-12T12:14:10;20.60;99.90
71142;DHT22;58808;59.366;17.970;2023-08-12T12:16:44;20.50;99.90
71142;DHT22;58808;59.366;17.970;2023-08-12T12:19:21;20.40;99.90
71142;DHT22;58808;59.366;17.970;2023-08-12T12:21:49;20.30;99.90
71142;DHT22;58808;59.366;17.970;2023-08-12T12:24:16;20.20;99.90
71142;DHT22;58808;59.366;17.970;2023-08-12T12:26:42;20.30;99.90
71142;DHT22;58808;59.366;17.970;2023-08-12T12:29:08;20.20;99.90
71142;DHT22;58808;59.366;17.970;2023-08-12T12:31:35;20.20;99.90
71142;DHT22;58808;59.366;17.970;2023-08-12T12:34:02;20.20;99.90
71142;DHT22;58808;59.366;17.970;2023-08-12T12:36:30;20.20;99.90
71142;DHT22;58808;59.366;17.970;2023-08-12T12:38:56;20.10;99.90
71142;DHT22;58808;59.366;17.970;2023-08-12T12:41:22;20.10;99.90
71142;DHT22;58808;59.366;17.970;2023-08-12T12:43:48;20.10;99.90
71142;DHT22;58808;59.366;17.970;2023-08-12T12:46:15;20.20;99.90
71142;DHT22;58808;59.366;17.970;2023-08-12T12:48:42;20.20;99.90
71142;DHT22;58808;59.366;17.970;2023-08-12T12:51:08;20.30;99.90
71142;DHT22;58808;59.366;17.970;2023-08-12T12:53:34;20.20;99.90
71142;DHT22;58808;59.366;17.970;2023-08-12T12:56:00;20.20;99.90
71142;DHT22;58808;59.366;17.970;2023-08-12T12:58:31;20.20;99.90
71142;DHT22;58808;59.366;17.970;2023-08-12T13:00:57;20.20;99.90
71142;DHT22;58808;59.366;17.970;2023-08-12T13:03:23;20.20;99.90
71142;DHT22;58808;59.366;17.970;2023-08-12T13:05:50;20.10;99.90
71142;DHT22;58808;59.366;17.970;2023-08-12T13:08:15;20.10;99.90
71142;DHT22;58808;59.366;17.970;2023-08-12T13:10:41;20.10;99.90
71142;DHT22;58808;59.366;17.970;2023-08-12T13:13:07;20.10;99.90
71142;DHT22;58808;59.366;17.970;2023-08-12T13:15:33;20.10;99.90
71142;DHT22;58808;59.366;17.970;2023-08-12T13:17:58;20.00;99.90
71142;DHT22;58808;59.366;17.970;2023-08-12T13:20:24;20.00;99.90
71142;DHT22;58808;59.366;17.970;2023-08-12T13:22:50;20.00;99.90
71142;DHT22;58808;59.366;17.970;2023-08-12T13:25:15;20.00;99.90
71142;DHT22;58808;59.366;17.970;2023-08-12T13:27:42;20.10;99.90
71142;DHT22;58808;59.366;17.970;2023-08-12T13:30:09;20.10;99.90
71142;DHT22;58808;59.366;17.970;2023-08-12T13:32:37;20.10;99.90
71142;DHT22;58808;59.366;17.970;2023-08-12T13:35:03;20.10;99.90
71142;DHT22;58808;59.366;17.970;2023-08-12T13:37:29;20.00;99.90
71142;DHT22;58808;59.366;17.970;2023-08-12T13:39:55;20.10;99.90
71142;DHT22;58808;59.366;17.970;2023-08-12T13:42:20;20.10;99.90
71142;DHT22;58808;59.366;17.970;2023-08-12T13:44:46;20.10;99.90
71142;DHT22;58808;59.366;17.970;2023-08-12T13:47:12;20.10;99.90
71142;DHT22;58808;59.366;17.970;2023-08-12T13:49:37;20.00;99.90
71142;DHT22;58808;59.366;17.970;2023-08-12T13:52:03;20.00;99.90
71142;DHT22;58808;59.366;17.970;2023-08-12T13:54:29;19.90;99.90
71142;DHT22;58808;59.366;17.970;2023-08-12T13:56:55;19.90;99.90
71142;DHT22;58808;59.366;17.970;2023-08-12T13:59:20;19.90;99.90
71142;DHT22;58808;59.366;17.970;2023-08-12T14:01:46;19.90;99.90
71142;DHT22;58808;59.366;17.970;2023-08-12T14:04:12;19.90;99.90
71142;DHT22;58808;59.366;17.970;2023-08-12T14:06:37;19.90;99.90
71142;DHT22;58808;59.366;17.970;2023-08-12T14:09:05;19.90;99.90
71142;DHT22;58808;59.366;17.970;2023-08-12T14:11:33;19.90;99.90
71142;DHT22;58808;59.366;17.970;2023-08-12T14:13:59;19.90;99.90
71142;DHT22;58808;59.366;17.970;2023-08-12T14:16:25;20.00;99.90
71142;DHT22;58808;59.366;17.970;2023-08-12T14:18:51;20.10;99.90
71142;DHT22;58808;59.366;17.970;2023-08-12T14:21:16;20.30;99.90
71142;DHT22;58808;59.366;17.970;2023-08-12T14:23:42;20.30;99.90
71142;DHT22;58808;59.366;17.970;2023-08-12T14:26:08;20.30;99.90
71142;DHT22;58808;59.366;17.970;2023-08-12T14:28:33;20.30;99.90
71142;DHT22;58808;59.366;17.970;2023-08-12T14:30:59;20.20;99.90
71142;DHT22;58808;59.366;17.970;2023-08-12T14:33:25;20.20;99.90
71142;DHT22;58808;59.366;17.970;2023-08-12T14:35:51;20.20;99.90
71142;DHT22;58808;59.366;17.970;2023-08-12T14:38:19;20.10;99.90
71142;DHT22;58808;59.366;17.970;2023-08-12T14:40:48;20.00;99.90
71142;DHT22;58808;59.366;17.970;2023-08-12T14:43:14;20.00;99.90
71142;DHT22;58808;59.366;17.970;2023-08-12T14:45:39;20.00;99.90
71142;DHT22;58808;59.366;17.970;2023-08-12T14:48:06;20.00;99.90
71142;DHT22;58808;59.366;17.970;2023-08-12T14:50:31;20.00;99.90
71142;DHT22;58808;59.366;17.970;2023-08-12T14:52:57;20.00;99.90
71142;DHT22;58808;59.366;17.970;2023-08-12T14:55:23;20.00;99.90
71142;DHT22;58808;59.366;17.970;2023-08-12T14:57:48;20.00;99.90
71142;DHT22;58808;59.366;17.970;2023-08-12T15:00:14;19.90;99.90
71142;DHT22;58808;59.366;17.970;2023-08-12T15:02:40;19.90;99.90
71142;DHT22;58808;59.366;17.970;2023-08-12T15:05:06;19.80;99.90
71142;DHT22;58808;59.366;17.970;2023-08-12T15:07:32;19.80;99.90
71142;DHT22;58808;59.366;17.970;2023-08-12T15:09:58;19.80;99.90
71142;DHT22;58808;59.366;17.970;2023-08-12T15:12:25;19.80;99.90
71142;DHT22;58808;59.366;17.970;2023-08-12T15:14:50;19.80;99.90
71142;DHT22;58808;59.366;17.970;2023-08-12T15:17:16;19.80;99.90
71142;DHT22;58808;59.366;17.970;2023-08-12T15:19:42;19.80;99.90
71142;DHT22;58808;59.366;17.970;2023-08-12T15:22:07;19.80;99.90